Nogal, NM

12:24 AM MST op 21 februari 2017 (GMT -0700)
Nogal and Carrizozo | | Change Station

Hoogte 6000 ft 33.61 °N, 105.77 °W | Updated 2 minutes ago

Helder
Helder
40.5 °F
Voelt als 37 °F
N
5.0
Wind Variabel Wind van NNW
Gusts 12.0 mijl/u

Vandaag
Hoog -- | Laag -- °F
--% Kans op neerslag
Gisteren
Hoog -- | Laag -- °F
Precip. -- inches
Druk 30.30 inches
Zicht 10.0 mijlen
Wolken Helder
Gevoelstemperatuur 37 °F
Dauwpunt 25 °F
Vochtigheid 53%
Neerslag 0.00 inches
Dikte sneeuw Niet beschikbaar.
6:40 AM 5:53 PM
Afnemende halvemaan, 27% visible
METAR KSRR 210715Z AUTO 33004KT 10SM CLR 07/M07 A3030 RMK AO2
Druk 30.30 inches
Zicht 10.0 mijlen
Wolken Helder
Gevoelstemperatuur 37 °F
Dauwpunt 25 °F
Vochtigheid 53%
Neerslag 0.00 inches
Dikte sneeuw Niet beschikbaar.
6:40 AM 5:53 PM
Afnemende halvemaan, 27% visible
METAR KSRR 210715Z AUTO 33004KT 10SM CLR 07/M07 A3030 RMK AO2

Get Your Daily Forecast Email!

Thanks for signing up!

Be on the lookout for a verification email in your inbox.

You'll start receiving the daily forecast at 8 AM.

×

10-Day Weather Forecast

Almanac

Astronomie

Feb. 21, 2017 Opkomst Ondergang
Werkelijke tijd
Burgerlijke schemering
Nautische schemering
Astronomische schemering
Maan
Golflengte van het zichtbare licht
Daglengte
Tomorrow will be .
, % of the Moon is Illuminated

Extremen vandaag

State Highs State Lows

Community

WunderPhotos

Upload Photos

1,962,540 foto’s ge-upload!

WunderBlog® & News

Nearby

Luchtkwaliteit

  Luchtkwaliteit LK-index Verontreinigende stof
Not available.

Dikte sneeuw

Station Depth Geometrische hoogte

Aardbevingen

Stad Distance Mag. Time & Date
Minimum magnitude displayed is 2.5.

Watertemperatuur langs de kust

Plaats Temperatuur

Stations

Nabije weerstations

Locatie station Temp. Gevoelstemperatuur Dauwpunt Vochtigheid Wind Precip. Hoogte Geactualiseerd Type
                   

Watches & Warnings

There are currently no watches in effect.